Time;durP1;ratioP1;P1;durP2;ratioP2;P2;SDS_P1;SDS_P2;PMS_P1;PMS_P2;Temp;Humidity;BMP_temperature;BMP_pressure;BME280_temperature;BME280_humidity;BME280_pressure;Samples;Min_cycle;Max_cycle;Signal;HPM_P1;HPM_P2
2023/10/07 00:03:53;;;;;;;5.57;2.63;;;14.60;1.00;;;;;;8272842;28;20256;-68
2023/10/07 00:08:00;;;;;;;4.73;2.40;;;14.60;1.00;;;;;;8273576;28;20226;-67
2023/10/07 00:12:02;;;;;;;5.70;3.30;;;14.70;1.00;;;;;;8281006;28;20206;-70
2023/10/07 00:16:03;;;;;;;5.27;2.80;;;14.80;1.00;;;;;;8255625;28;20219;-70
2023/10/07 00:20:09;;;;;;;4.60;2.70;;;14.80;1.00;;;;;;8259935;28;20164;-70
2023/10/07 00:24:16;;;;;;;5.20;2.47;;;14.80;1.00;;;;;;8257962;28;20203;-68
2023/10/07 00:28:24;;;;;;;5.77;2.83;;;14.80;1.00;;;;;;8269709;28;20199;-69
2023/10/07 00:32:32;;;;;;;4.27;2.53;;;14.90;1.00;;;;;;8280038;28;20242;-70
2023/10/07 00:40:45;;;;;;;6.40;2.63;;;14.90;1.00;;;;;;8284881;28;20281;-72
2023/10/07 00:44:52;;;;;;;4.27;2.40;;;14.80;1.00;;;;;;8287778;28;20245;-70
2023/10/07 00:48:57;;;;;;;4.57;2.53;;;14.80;1.00;;;;;;8287693;28;20471;-70
2023/10/07 00:53:05;;;;;;;4.77;2.70;;;14.80;1.00;;;;;;8284393;28;20211;-71
2023/10/07 00:57:10;;;;;;;5.00;2.80;;;14.80;1.00;;;;;;8270535;28;20183;-70
2023/10/07 01:01:14;;;;;;;6.23;2.93;;;14.80;1.00;;;;;;8282981;28;20301;-70
2023/10/07 01:05:22;;;;;;;5.57;2.27;;;14.80;1.00;;;;;;8261835;28;20269;-69
2023/10/07 01:09:23;;;;;;;4.70;2.63;;;14.80;1.00;;;;;;8264467;28;20274;-73
2023/10/07 01:13:29;;;;;;;4.57;2.63;;;14.90;1.00;;;;;;8266180;28;20231;-71
2023/10/07 01:17:31;;;;;;;6.43;2.87;;;14.80;1.00;;;;;;8263430;28;20189;-70
2023/10/07 01:21:41;;;;;;;4.17;2.10;;;14.90;1.00;;;;;;8279260;28;20306;-73
2023/10/07 01:25:44;;;;;;;5.23;2.60;;;14.90;1.00;;;;;;8268593;28;20540;-71
2023/10/07 01:29:55;;;;;;;4.03;2.30;;;14.80;1.00;;;;;;8260282;28;20191;-68
2023/10/07 01:34:00;;;;;;;5.97;3.00;;;14.80;1.00;;;;;;8236429;28;20211;-68
2023/10/07 01:38:07;;;;;;;4.53;2.47;;;14.90;1.00;;;;;;8261434;28;20258;-69
2023/10/07 01:42:20;;;;;;;3.63;2.50;;;14.90;1.00;;;;;;8267286;28;20403;-70
2023/10/07 01:46:22;;;;;;;3.90;2.53;;;15.00;1.00;;;;;;8273402;28;20194;-69
2023/10/07 01:50:25;;;;;;;6.07;2.80;;;14.90;1.00;;;;;;8271002;28;20164;-73
2023/10/07 01:54:33;;;;;;;4.33;2.43;;;14.90;1.00;;;;;;8281588;28;20234;-72
2023/10/07 01:58:35;;;;;;;4.83;2.10;;;15.00;1.00;;;;;;8265369;28;20761;-69
2023/10/07 02:02:42;;;;;;;6.60;2.53;;;15.00;1.00;;;;;;8259845;28;20195;-67
2023/10/07 02:06:54;;;;;;;5.00;2.13;;;15.00;1.00;;;;;;8256576;28;20194;-67
2023/10/07 02:10:59;;;;;;;4.73;2.90;;;15.00;1.00;;;;;;8273223;28;20305;-67
2023/10/07 02:15:09;;;;;;;5.00;2.60;;;15.00;1.00;;;;;;8272788;28;20563;-66
2023/10/07 02:19:14;;;;;;;5.83;2.43;;;14.90;1.00;;;;;;8272491;28;20471;-65
2023/10/07 02:23:21;;;;;;;4.73;2.43;;;14.90;1.00;;;;;;8264333;28;20206;-66
2023/10/07 02:27:25;;;;;;;5.27;2.90;;;14.90;1.00;;;;;;8250580;28;20190;-67
2023/10/07 02:31:28;;;;;;;5.37;2.60;;;14.80;1.00;;;;;;8256654;28;20183;-66
2023/10/07 02:35:31;;;;;;;4.87;2.53;;;14.90;1.00;;;;;;8254100;28;20210;-68
2023/10/07 02:39:45;;;;;;;4.07;2.27;;;14.80;1.00;;;;;;8272705;28;20189;-66
2023/10/07 02:43:49;;;;;;;4.50;2.77;;;14.80;1.00;;;;;;8272887;28;20191;-66
2023/10/07 02:47:53;;;;;;;6.30;2.63;;;14.90;1.00;;;;;;8273762;28;20273;-67
2023/10/07 02:51:57;;;;;;;5.97;2.27;;;14.90;1.00;;;;;;8256781;28;20210;-65
2023/10/07 02:55:58;;;;;;;6.30;2.43;;;15.00;1.00;;;;;;8254257;28;20206;-67
2023/10/07 03:00:11;;;;;;;4.13;2.30;;;15.00;1.00;;;;;;8262678;28;20230;-67
2023/10/07 03:04:12;;;;;;;4.20;2.27;;;15.00;1.00;;;;;;8261192;28;20194;-65
2023/10/07 03:08:19;;;;;;;4.93;2.30;;;14.90;1.00;;;;;;8257508;28;20218;-66
2023/10/07 03:12:27;;;;;;;4.57;2.33;;;15.00;1.00;;;;;;8259704;28;20203;-66
2023/10/07 03:16:28;;;;;;;6.57;2.37;;;15.00;1.00;;;;;;8271146;28;20179;-67
2023/10/07 03:20:47;;;;;;;6.13;2.10;;;15.10;1.00;;;;;;8258062;28;20282;-65
2023/10/07 03:24:54;;;;;;;4.33;2.23;;;15.10;1.00;;;;;;8263715;28;20210;-65
2023/10/07 03:28:55;;;;;;;7.83;2.83;;;15.20;1.00;;;;;;8261030;28;20207;-66
2023/10/07 03:32:57;;;;;;;4.73;2.43;;;15.20;1.00;;;;;;8259677;28;20214;-66
2023/10/07 03:41:09;;;;;;;6.43;2.90;;;15.20;1.00;;;;;;8277963;28;20187;-66
2023/10/07 03:45:14;;;;;;;5.27;2.63;;;15.30;1.00;;;;;;8262247;28;20221;-65
2023/10/07 03:49:16;;;;;;;6.10;2.20;;;15.30;1.00;;;;;;8258214;28;20184;-66
2023/10/07 03:53:16;;;;;;;3.90;2.27;;;15.40;1.00;;;;;;8260939;28;20547;-66
2023/10/07 03:57:18;;;;;;;4.30;2.40;;;15.40;1.00;;;;;;8259164;28;20187;-68
2023/10/07 04:01:22;;;;;;;4.17;2.47;;;15.40;1.00;;;;;;8276826;28;20288;-64
2023/10/07 04:05:31;;;;;;;6.13;2.37;;;15.40;1.00;;;;;;8276229;28;20245;-67
2023/10/07 04:09:33;;;;;;;4.70;2.17;;;15.40;1.00;;;;;;8257635;28;20188;-67
2023/10/07 04:13:33;;;;;;;3.53;2.00;;;15.40;1.00;;;;;;8259789;28;20215;-65
2023/10/07 04:17:34;;;;;;;5.43;2.63;;;15.50;1.00;;;;;;8259222;28;20191;-67
2023/10/07 04:21:42;;;;;;;4.93;2.70;;;15.50;1.00;;;;;;8263182;28;20275;-70
2023/10/07 04:25:44;;;;;;;4.43;2.40;;;15.50;1.00;;;;;;8262901;28;20310;-67
2023/10/07 04:29:46;;;;;;;4.33;2.40;;;15.50;1.00;;;;;;8261843;28;20237;-68
2023/10/07 04:33:47;;;;;;;3.87;2.47;;;15.60;1.00;;;;;;8262277;28;20211;-69
2023/10/07 04:38:09;;;;;;;4.67;2.37;;;15.70;1.00;;;;;;8277584;28;20230;-70
2023/10/07 04:42:20;;;;;;;4.20;2.20;;;15.80;1.00;;;;;;8279557;28;20199;-70
2023/10/07 04:46:23;;;;;;;4.63;2.50;;;15.80;1.00;;;;;;8262575;28;20195;-69
2023/10/07 04:50:35;;;;;;;5.00;2.47;;;15.80;1.00;;;;;;8276838;28;20342;-69
2023/10/07 04:54:36;;;;;;;6.37;3.00;;;15.70;1.00;;;;;;8262846;28;20239;-67
2023/10/07 04:58:40;;;;;;;6.13;2.60;;;15.70;1.00;;;;;;8265176;28;20199;-69
2023/10/07 05:02:40;;;;;;;4.53;2.60;;;15.60;1.00;;;;;;8277185;28;20630;-70
2023/10/07 05:06:43;;;;;;;5.07;2.43;;;15.60;1.00;;;;;;8260771;28;20326;-69
2023/10/07 05:10:52;;;;;;;6.53;2.30;;;15.50;1.00;;;;;;8279099;28;20178;-70
2023/10/07 05:14:55;;;;;;;4.97;2.23;;;15.50;1.00;;;;;;8262377;28;20292;-69
2023/10/07 05:18:55;;;;;;;5.57;2.50;;;15.60;1.00;;;;;;8277191;28;20183;-67
2023/10/07 05:22:57;;;;;;;5.87;2.17;;;15.50;1.00;;;;;;8256951;28;20191;-68
2023/10/07 05:27:01;;;;;;;4.47;2.53;;;15.60;1.00;;;;;;8263268;28;20255;-71
2023/10/07 05:31:03;;;;;;;4.53;2.33;;;15.50;1.00;;;;;;8256633;28;20195;-68
2023/10/07 05:35:05;;;;;;;4.23;2.57;;;15.40;1.00;;;;;;8255288;28;20269;-69
2023/10/07 05:39:08;;;;;;;6.17;2.47;;;15.40;1.00;;;;;;8259068;28;20207;-71
2023/10/07 05:43:09;;;;;;;4.53;2.00;;;15.40;1.00;;;;;;8276778;28;20188;-70
2023/10/07 05:47:12;;;;;;;6.20;2.70;;;15.50;1.00;;;;;;8257492;28;20242;-71
2023/10/07 05:51:14;;;;;;;4.23;2.50;;;15.60;1.00;;;;;;8273205;28;20258;-67
2023/10/07 05:55:15;;;;;;;4.83;2.43;;;15.80;1.00;;;;;;8273494;28;20203;-69
2023/10/07 05:59:16;;;;;;;5.37;2.40;;;15.80;1.00;;;;;;8256311;28;20199;-71
2023/10/07 06:03:18;;;;;;;3.40;1.90;;;16.00;1.00;;;;;;8257712;28;20194;-72
2023/10/07 06:07:21;;;;;;;5.70;2.30;;;16.10;1.00;;;;;;8272385;28;20191;-72
2023/10/07 06:11:23;;;;;;;4.63;2.30;;;16.10;1.00;;;;;;8260358;28;20192;-73
2023/10/07 06:15:24;;;;;;;4.53;2.37;;;16.10;1.00;;;;;;8275668;28;20218;-73
2023/10/07 06:19:24;;;;;;;4.93;2.30;;;16.10;1.00;;;;;;8256106;28;20187;-68
2023/10/07 06:23:25;;;;;;;5.60;2.60;;;16.20;1.00;;;;;;8255419;28;20206;-74
2023/10/07 06:27:29;;;;;;;4.27;2.07;;;16.30;1.00;;;;;;8270717;28;20451;-70
2023/10/07 06:31:31;;;;;;;4.50;2.00;;;16.40;1.00;;;;;;8253048;28;20188;-70
2023/10/07 06:35:34;;;;;;;3.97;2.30;;;16.40;1.00;;;;;;8259185;28;20648;-73
2023/10/07 06:39:35;;;;;;;4.17;2.30;;;16.50;1.00;;;;;;8253517;28;20183;-70
2023/10/07 06:43:41;;;;;;;6.70;2.60;;;16.60;1.00;;;;;;8256273;28;20274;-72
2023/10/07 06:47:42;;;;;;;4.67;2.73;;;16.70;1.00;;;;;;8267987;28;20191;-68
2023/10/07 06:51:45;;;;;;;6.40;2.37;;;16.90;1.00;;;;;;8256921;28;20190;-68
2023/10/07 06:55:51;;;;;;;6.27;2.40;;;17.10;1.00;;;;;;8278985;28;20191;-67
2023/10/07 06:59:53;;;;;;;4.13;2.43;;;17.30;1.00;;;;;;8260734;28;20207;-69
2023/10/07 07:03:54;;;;;;;5.47;2.40;;;17.50;1.00;;;;;;8279056;28;20183;-67
2023/10/07 07:07:56;;;;;;;4.37;2.07;;;17.50;1.00;;;;;;8278329;28;20191;-70
2023/10/07 07:11:58;;;;;;;4.27;2.27;;;17.50;1.00;;;;;;8279163;28;20195;-68
2023/10/07 07:16:06;;;;;;;6.10;2.53;;;17.50;1.00;;;;;;8261069;28;20218;-71
2023/10/07 07:24:11;;;;;;;3.73;2.27;;;17.70;1.00;;;;;;8280388;28;20219;-69
2023/10/07 07:28:16;;;;;;;4.17;1.97;;;17.80;1.00;;;;;;8275259;28;20317;-67
2023/10/07 07:32:18;;;;;;;4.10;2.50;;;17.90;1.00;;;;;;8259903;28;20314;-68
2023/10/07 07:36:37;;;;;;;5.33;2.73;;;18.00;1.00;;;;;;8277812;28;20176;-71
2023/10/07 07:40:41;;;;;;;4.07;2.10;;;18.00;1.00;;;;;;8261436;28;20187;-70
2023/10/07 07:44:55;;;;;;;3.97;2.37;;;18.10;1.00;;;;;;8261778;28;20202;-70
2023/10/07 07:49:08;;;;;;;4.97;2.40;;;18.10;1.00;;;;;;8275346;28;20245;-70
2023/10/07 07:53:09;;;;;;;4.37;2.20;;;18.30;1.00;;;;;;8267781;28;20219;-69
2023/10/07 07:57:12;;;;;;;4.23;2.17;;;18.50;1.00;;;;;;8259361;28;20279;-70
2023/10/07 08:01:38;;;;;;;5.63;2.30;;;18.50;1.00;;;;;;8260898;28;20199;-70
2023/10/07 08:05:42;;;;;;;3.87;2.30;;;18.70;1.00;;;;;;8270582;28;20199;-70
2023/10/07 08:09:44;;;;;;;5.93;2.50;;;18.50;1.00;;;;;;8274715;28;20183;-68
2023/10/07 08:13:46;;;;;;;6.00;2.60;;;18.40;1.00;;;;;;8258249;28;20207;-69
2023/10/07 08:17:50;;;;;;;5.60;2.60;;;18.20;1.00;;;;;;8272755;28;20207;-69
2023/10/07 08:21:52;;;;;;;3.70;2.40;;;18.20;1.00;;;;;;8257431;28;20221;-71
2023/10/07 08:26:10;;;;;;;5.23;3.07;;;18.10;1.00;;;;;;8272145;28;20203;-70
2023/10/07 08:30:14;;;;;;;6.03;2.40;;;18.10;1.00;;;;;;8250885;28;20315;-70
2023/10/07 08:34:17;;;;;;;6.00;3.03;;;18.30;1.00;;;;;;8272624;28;20842;-72
2023/10/07 08:42:45;;;;;;;4.60;2.60;;;18.70;1.00;;;;;;8266823;28;20191;-71
2023/10/07 08:46:54;;;;;;;6.47;2.13;;;18.90;1.00;;;;;;8255000;28;20181;-69
2023/10/07 08:51:02;;;;;;;6.17;2.53;;;18.70;1.00;;;;;;8270460;28;20184;-72
2023/10/07 08:55:09;;;;;;;3.80;1.90;;;18.60;1.00;;;;;;8272102;28;20203;-70
2023/10/07 08:59:12;;;;;;;8.10;2.50;;;18.50;1.00;;;;;;8273789;28;20195;-70
2023/10/07 09:03:16;;;;;;;5.20;1.97;;;18.10;1.00;;;;;;8257404;28;20183;-70
2023/10/07 09:07:20;;;;;;;5.83;2.30;;;17.70;1.00;;;;;;8259594;28;20207;-71
2023/10/07 09:11:21;;;;;;;4.57;2.00;;;17.60;1.00;;;;;;8253202;28;20187;-70
2023/10/07 09:15:34;;;;;;;3.40;2.10;;;17.40;1.00;;;;;;8258664;28;20230;-70
2023/10/07 09:19:36;;;;;;;8.53;2.47;;;17.30;1.00;;;;;;8252629;28;20261;-72
2023/10/07 09:23:47;;;;;;;4.60;2.30;;;17.30;1.00;;;;;;8256889;28;20206;-68
2023/10/07 09:27:58;;;;;;;4.93;2.50;;;17.40;1.00;;;;;;8255436;28;20762;-71
2023/10/07 09:32:16;;;;;;;5.10;2.27;;;17.50;1.00;;;;;;8253098;28;20207;-72
2023/10/07 09:44:48;;;;;;;5.43;2.40;;;17.40;1.00;;;;;;8276230;28;20202;-68
2023/10/07 09:48:51;;;;;;;5.60;2.03;;;17.80;1.00;;;;;;8274912;28;20202;-71
2023/10/07 09:53:21;;;;;;;5.53;2.40;;;18.10;1.00;;;;;;8261650;28;20206;-71
2023/10/07 09:57:44;;;;;;;3.47;2.03;;;18.00;1.00;;;;;;8258660;28;20253;-71
2023/10/07 10:02:26;;;;;;;4.13;2.23;;;17.80;1.00;;;;;;8258794;28;20207;-70
2023/10/07 10:06:47;;;;;;;5.40;2.30;;;17.70;1.00;;;;;;8274093;28;20226;-71
2023/10/07 10:10:51;;;;;;;5.03;2.37;;;17.60;1.00;;;;;;8255683;28;20194;-70
2023/10/07 10:14:56;;;;;;;5.00;2.30;;;17.50;1.00;;;;;;8255187;28;20211;-68
2023/10/07 10:23:35;;;;;;;6.07;2.60;;;17.70;1.00;;;;;;8203688;28;20208;-69
2023/10/07 10:27:44;;;;;;;3.23;1.90;;;17.80;1.00;;;;;;8205249;28;20200;-69
2023/10/07 10:31:53;;;;;;;6.90;2.43;;;18.00;1.00;;;;;;8254169;28;20199;-71
2023/10/07 10:36:02;;;;;;;3.03;2.20;;;18.00;1.00;;;;;;8268529;28;20191;-70
2023/10/07 10:40:14;;;;;;;5.23;1.93;;;18.00;1.00;;;;;;8271446;28;20386;-69
2023/10/07 10:44:16;;;;;;;5.17;2.27;;;18.10;1.00;;;;;;8256601;28;20633;-72
2023/10/07 10:48:26;;;;;;;4.60;2.40;;;17.80;1.00;;;;;;8269629;28;20210;-72
2023/10/07 10:52:27;;;;;;;3.80;2.30;;;17.70;1.00;;;;;;8273344;28;20215;-69
2023/10/07 10:56:28;;;;;;;5.77;2.00;;;18.10;1.00;;;;;;8250738;28;20187;-69
2023/10/07 11:00:30;;;;;;;5.07;2.57;;;18.10;1.00;;;;;;8257175;28;20198;-70
2023/10/07 11:04:32;;;;;;;3.87;2.30;;;18.10;1.00;;;;;;8256612;28;20258;-69
2023/10/07 11:08:33;;;;;;;3.30;2.27;;;18.00;1.00;;;;;;8252897;28;20187;-69
2023/10/07 11:12:36;;;;;;;3.47;2.17;;;18.00;1.00;;;;;;8260268;28;20210;-67
2023/10/07 11:16:45;;;;;;;4.20;2.10;;;17.90;1.00;;;;;;8252741;28;20187;-71
2023/10/07 11:20:46;;;;;;;4.63;2.47;;;18.00;1.00;;;;;;8255249;28;20187;-72
2023/10/07 11:24:50;;;;;;;3.63;2.27;;;18.10;1.00;;;;;;8273618;28;20518;-72
2023/10/07 11:28:55;;;;;;;3.90;2.23;;;18.30;1.00;;;;;;8253501;28;20270;-69
2023/10/07 11:32:57;;;;;;;4.87;2.67;;;18.70;1.00;;;;;;8257207;28;20221;-72
2023/10/07 11:37:09;;;;;;;5.90;1.93;;;18.60;1.00;;;;;;8261878;28;20202;-68
2023/10/07 11:41:12;;;;;;;6.23;2.60;;;18.40;1.00;;;;;;8272031;28;20195;-72
2023/10/07 11:45:16;;;;;;;5.47;2.30;;;18.50;1.00;;;;;;8262864;28;20661;-69
2023/10/07 11:49:17;;;;;;;5.30;2.53;;;18.50;1.00;;;;;;8275367;28;20190;-71
2023/10/07 11:53:19;;;;;;;5.07;2.10;;;18.60;1.00;;;;;;8277523;28;20234;-70
2023/10/07 11:57:21;;;;;;;4.37;2.40;;;18.70;1.00;;;;;;8261310;28;20194;-68
2023/10/07 12:01:23;;;;;;;3.47;2.17;;;18.80;1.00;;;;;;8281234;28;20203;-68
2023/10/07 12:05:28;;;;;;;4.27;1.80;;;18.80;1.00;;;;;;8258378;28;20203;-69
2023/10/07 12:09:28;;;;;;;3.07;2.00;;;18.80;1.00;;;;;;8258968;28;20628;-69
2023/10/07 12:13:31;;;;;;;3.73;2.00;;;18.90;1.00;;;;;;8274554;28;20211;-69
2023/10/07 12:17:32;;;;;;;4.80;1.93;;;18.70;1.00;;;;;;8259143;28;20187;-70
2023/10/07 12:21:34;;;;;;;3.60;1.87;;;18.80;1.00;;;;;;8260347;28;20365;-71
2023/10/07 12:25:35;;;;;;;3.20;2.00;;;18.90;1.00;;;;;;8256327;28;21501;-67
2023/10/07 12:29:38;;;;;;;2.87;1.83;;;18.70;1.00;;;;;;8258274;28;20194;-70
2023/10/07 12:33:39;;;;;;;4.67;2.30;;;18.70;1.00;;;;;;8258165;28;20236;-72
2023/10/07 12:37:46;;;;;;;6.10;2.40;;;18.70;1.00;;;;;;8257836;28;20183;-70
2023/10/07 12:41:48;;;;;;;4.83;2.27;;;18.70;1.00;;;;;;8272302;28;20203;-71
2023/10/07 12:45:48;;;;;;;3.60;2.00;;;18.80;1.00;;;;;;8260509;28;20201;-73
2023/10/07 12:49:53;;;;;;;5.60;2.47;;;18.90;1.00;;;;;;8254684;28;20191;-73
2023/10/07 12:53:58;;;;;;;3.23;2.17;;;18.90;1.00;;;;;;8257320;28;20310;-72
2023/10/07 12:58:06;;;;;;;3.10;1.80;;;19.10;1.00;;;;;;8275944;28;20234;-71
2023/10/07 13:02:09;;;;;;;4.33;2.10;;;19.30;1.00;;;;;;8256267;28;20210;-71
2023/10/07 13:06:10;;;;;;;3.03;2.00;;;19.50;1.00;;;;;;8272752;28;20266;-67
2023/10/07 13:10:12;;;;;;;3.43;1.90;;;19.30;1.00;;;;;;8256498;28;20180;-69
2023/10/07 13:14:14;;;;;;;3.20;2.17;;;19.10;1.00;;;;;;8256243;28;20218;-70
2023/10/07 13:18:15;;;;;;;5.00;2.30;;;18.80;1.00;;;;;;8255874;28;20295;-69
2023/10/07 13:22:18;;;;;;;5.67;2.33;;;18.70;1.00;;;;;;8257011;28;20178;-73
2023/10/07 13:26:19;;;;;;;3.07;1.77;;;18.40;1.00;;;;;;8252691;28;20187;-67
2023/10/07 13:30:24;;;;;;;4.17;2.37;;;18.40;1.00;;;;;;8273668;28;20194;-71
2023/10/07 13:34:28;;;;;;;4.67;2.27;;;18.40;1.00;;;;;;8273880;28;20221;-71
2023/10/07 13:38:30;;;;;;;3.83;2.20;;;18.40;7.10;;;;;;8259035;28;20259;-70
2023/10/07 13:42:31;;;;;;;9.70;2.87;;;18.40;24.20;;;;;;8260119;28;20198;-69
2023/10/07 13:46:33;;;;;;;4.13;2.00;;;18.30;58.50;;;;;;8256846;28;20187;-68
2023/10/07 13:50:39;;;;;;;4.27;2.33;;;18.00;95.50;;;;;;8275213;28;20304;-69
2023/10/07 13:54:47;;;;;;;6.33;2.50;;;17.70;99.90;;;;;;8275643;28;20264;-70
2023/10/07 13:58:48;;;;;;;3.17;2.07;;;17.70;99.90;;;;;;8274632;28;20195;-69
2023/10/07 14:02:49;;;;;;;5.53;2.30;;;17.60;99.90;;;;;;8258861;28;20187;-71
2023/10/07 14:06:54;;;;;;;5.80;2.43;;;17.50;99.90;;;;;;8257339;28;20191;-69
2023/10/07 14:10:57;;;;;;;6.23;2.57;;;17.50;99.90;;;;;;8255221;28;20187;-68
2023/10/07 14:15:03;;;;;;;6.67;2.40;;;17.50;99.90;;;;;;8257494;28;20310;-71
2023/10/07 14:19:07;;;;;;;4.70;2.43;;;17.50;99.90;;;;;;8255445;28;20265;-72
2023/10/07 14:23:08;;;;;;;6.43;2.83;;;17.50;99.90;;;;;;8273149;28;21514;-69
2023/10/07 14:27:09;;;;;;;4.80;2.43;;;17.40;99.90;;;;;;8256370;28;20196;-71
2023/10/07 14:31:16;;;;;;;4.90;2.53;;;17.30;99.90;;;;;;8256328;28;20269;-68
2023/10/07 14:35:17;;;;;;;4.03;2.30;;;17.30;99.90;;;;;;8254620;28;20262;-72
2023/10/07 14:39:22;;;;;;;5.93;2.80;;;17.30;99.90;;;;;;8269519;28;20213;-72
2023/10/07 14:43:24;;;;;;;5.53;2.53;;;17.20;99.90;;;;;;8251402;28;20194;-68
2023/10/07 14:47:25;;;;;;;3.50;2.27;;;17.10;99.90;;;;;;8254654;28;20187;-71
2023/10/07 14:51:29;;;;;;;5.77;2.60;;;17.00;99.90;;;;;;8270760;28;20246;-69
2023/10/07 14:55:34;;;;;;;5.43;2.80;;;16.80;1.00;;;;;;8272773;28;20226;-70
2023/10/07 14:59:35;;;;;;;5.50;3.00;;;16.80;4.40;;;;;;8255751;28;20458;-69
2023/10/07 15:03:36;;;;;;;6.37;2.90;;;16.60;99.90;;;;;;8255873;28;20183;-70
2023/10/07 15:07:37;;;;;;;4.97;2.90;;;16.40;1.00;;;;;;8255236;28;20183;-74
2023/10/07 15:11:38;;;;;;;6.03;3.13;;;16.30;1.00;;;;;;8254387;28;20281;-71
2023/10/07 15:15:40;;;;;;;5.07;2.93;;;16.10;99.90;;;;;;8261432;28;20214;-70
2023/10/07 15:19:41;;;;;;;7.10;3.70;;;16.10;1.00;;;;;;8266004;28;20191;-69
2023/10/07 15:23:43;;;;;;;6.33;3.60;;;16.00;47.50;;;;;;8280111;28;20206;-70
2023/10/07 15:27:45;;;;;;;4.83;3.60;;;16.00;99.90;;;;;;8258848;28;20193;-72
2023/10/07 15:31:48;;;;;;;7.07;3.60;;;15.90;1.00;;;;;;8263012;28;20198;-72
2023/10/07 15:35:53;;;;;;;5.90;3.27;;;15.90;99.90;;;;;;8278038;28;20219;-72
2023/10/07 15:39:53;;;;;;;4.73;3.17;;;15.90;99.90;;;;;;8260538;28;20266;-71
2023/10/07 15:43:54;;;;;;;7.33;3.43;;;15.90;99.90;;;;;;8278560;28;20228;-70
2023/10/07 15:47:55;;;;;;;5.40;3.07;;;15.90;6.40;;;;;;8260449;28;20191;-72
2023/10/07 15:51:56;;;;;;;7.37;3.60;;;16.00;99.90;;;;;;8274866;28;20193;-69
2023/10/07 15:56:00;;;;;;;5.17;3.30;;;16.00;99.90;;;;;;8275502;28;20264;-69
2023/10/07 16:00:03;;;;;;;8.07;3.57;;;16.00;13.90;;;;;;8276848;28;20206;-69
2023/10/07 16:04:08;;;;;;;4.83;2.77;;;16.00;99.90;;;;;;8276776;28;20274;-70
2023/10/07 16:08:10;;;;;;;5.67;3.13;;;16.10;99.90;;;;;;8275091;28;20183;-70
2023/10/07 16:12:14;;;;;;;8.33;3.33;;;16.10;99.90;;;;;;8260283;28;20186;-71
2023/10/07 16:16:15;;;;;;;7.20;3.13;;;16.20;1.00;;;;;;8258723;28;20179;-70
2023/10/07 16:20:18;;;;;;;5.83;2.93;;;16.20;1.00;;;;;;8264186;28;20191;-69
2023/10/07 16:24:22;;;;;;;5.50;3.03;;;16.30;99.90;;;;;;8258864;28;20264;-70
2023/10/07 16:28:25;;;;;;;6.07;3.03;;;16.40;99.90;;;;;;8256928;28;20191;-71
2023/10/07 16:32:29;;;;;;;8.03;2.87;;;16.40;99.90;;;;;;8255624;28;20218;-72
2023/10/07 16:36:31;;;;;;;4.97;3.00;;;16.40;99.90;;;;;;8278012;28;20183;-71
2023/10/07 16:40:33;;;;;;;8.63;3.30;;;16.50;99.90;;;;;;8255274;28;20487;-69
2023/10/07 16:44:36;;;;;;;5.73;3.10;;;16.60;99.90;;;;;;8282327;28;20617;-69
2023/10/07 16:48:40;;;;;;;4.93;2.67;;;16.60;99.90;;;;;;8266324;28;20507;-70
2023/10/07 16:52:42;;;;;;;5.07;2.60;;;16.70;99.90;;;;;;8265072;28;20475;-68
2023/10/07 16:56:43;;;;;;;7.20;2.80;;;16.70;99.90;;;;;;8279958;28;20186;-68
2023/10/07 17:00:45;;;;;;;6.03;3.07;;;16.80;99.90;;;;;;8260709;28;20297;-69
2023/10/07 17:04:46;;;;;;;3.83;2.27;;;17.10;93.80;;;;;;8276132;28;20187;-68
2023/10/07 17:08:47;;;;;;;4.40;3.10;;;17.20;63.10;;;;;;8279143;28;20229;-70
2023/10/07 17:12:49;;;;;;;4.60;2.87;;;17.30;60.50;;;;;;8264423;28;20211;-68
2023/10/07 17:16:51;;;;;;;4.93;2.67;;;17.30;84.00;;;;;;8260233;28;20187;-70
2023/10/07 17:20:52;;;;;;;5.60;2.83;;;17.20;99.90;;;;;;8257285;28;20559;-66
2023/10/07 17:24:54;;;;;;;7.33;3.00;;;17.10;99.90;;;;;;8249723;28;20203;-66
2023/10/07 17:28:54;;;;;;;7.40;3.17;;;17.00;99.90;;;;;;8254654;28;20255;-67
2023/10/07 17:32:59;;;;;;;4.87;3.00;;;17.00;99.90;;;;;;8251487;28;20312;-64
2023/10/07 17:37:00;;;;;;;6.90;2.83;;;17.00;99.90;;;;;;8253520;28;20237;-66
2023/10/07 17:41:01;;;;;;;3.73;2.80;;;17.00;99.90;;;;;;8275774;28;20191;-64
2023/10/07 17:45:10;;;;;;;6.30;2.90;;;17.00;99.90;;;;;;8255123;28;20195;-66
2023/10/07 17:49:11;;;;;;;8.07;2.60;;;17.10;99.90;;;;;;8255045;28;20550;-66
2023/10/07 17:53:13;;;;;;;5.70;2.80;;;17.10;99.90;;;;;;8262796;28;20207;-64
2023/10/07 17:57:13;;;;;;;7.13;2.93;;;17.10;99.90;;;;;;8273042;28;20188;-65
2023/10/07 18:01:15;;;;;;;5.87;2.73;;;17.20;99.60;;;;;;8254432;28;20207;-64
2023/10/07 18:05:16;;;;;;;5.83;2.67;;;17.20;99.90;;;;;;8268824;28;20191;-66
2023/10/07 18:09:17;;;;;;;10.13;3.13;;;17.20;97.70;;;;;;8254675;28;20187;-65
2023/10/07 18:13:18;;;;;;;6.33;3.10;;;17.20;82.30;;;;;;8254733;28;20207;-63
2023/10/07 18:17:19;;;;;;;4.57;2.60;;;17.20;68.60;;;;;;8254049;28;20476;-67
2023/10/07 18:21:20;;;;;;;5.83;3.17;;;17.20;91.10;;;;;;8253836;28;20265;-66
2023/10/07 18:25:22;;;;;;;3.57;2.67;;;17.10;99.90;;;;;;8257633;28;20199;-65
2023/10/07 18:29:23;;;;;;;5.30;3.10;;;16.90;99.90;;;;;;8256994;28;20196;-65
2023/10/07 18:33:23;;;;;;;7.90;3.17;;;16.80;99.90;;;;;;8254459;28;20261;-65
2023/10/07 18:37:24;;;;;;;4.73;3.20;;;16.60;99.90;;;;;;8271087;28;20194;-65
2023/10/07 18:41:25;;;;;;;7.77;3.50;;;16.40;1.00;;;;;;8252700;28;20217;-64
2023/10/07 18:45:26;;;;;;;7.20;3.27;;;16.30;1.00;;;;;;8251915;28;20277;-66
2023/10/07 18:49:27;;;;;;;6.00;3.40;;;16.20;99.90;;;;;;8272866;28;20190;-66
2023/10/07 18:53:28;;;;;;;7.20;3.33;;;16.00;1.00;;;;;;8261401;28;20211;-66
2023/10/07 18:57:30;;;;;;;7.40;3.30;;;16.00;99.90;;;;;;8276357;28;20266;-65
2023/10/07 19:01:31;;;;;;;9.83;4.03;;;15.90;1.00;;;;;;8277868;28;20200;-67
2023/10/07 19:05:33;;;;;;;10.00;4.37;;;15.80;1.00;;;;;;8258824;28;20301;-66
2023/10/07 19:09:37;;;;;;;7.77;4.07;;;15.80;1.00;;;;;;8259428;28;20188;-64
2023/10/07 19:13:40;;;;;;;5.83;3.53;;;15.70;93.20;;;;;;8258605;28;20285;-68
2023/10/07 19:17:41;;;;;;;6.20;3.97;;;15.70;99.90;;;;;;8276077;28;20208;-66
2023/10/07 19:21:44;;;;;;;7.03;3.73;;;15.70;1.00;;;;;;8255938;28;20187;-66
2023/10/07 19:25:55;;;;;;;8.43;3.97;;;15.70;99.90;;;;;;8257877;28;20277;-65
2023/10/07 19:29:56;;;;;;;7.77;3.80;;;15.80;1.00;;;;;;8273741;28;20188;-66
2023/10/07 19:33:57;;;;;;;7.27;3.37;;;16.00;1.00;;;;;;8256448;28;20512;-64
2023/10/07 19:37:58;;;;;;;6.30;3.13;;;16.10;99.90;;;;;;8258716;28;20179;-65
2023/10/07 19:42:00;;;;;;;6.87;3.00;;;16.30;99.90;;;;;;8261421;28;20191;-69
2023/10/07 19:46:11;;;;;;;4.80;2.60;;;16.50;99.90;;;;;;8268115;28;20183;-69
2023/10/07 19:50:11;;;;;;;7.77;3.07;;;16.70;99.90;;;;;;8265920;28;20497;-68
2023/10/07 19:54:13;;;;;;;5.43;2.53;;;17.00;99.40;;;;;;8280289;28;20215;-69
2023/10/07 19:58:14;;;;;;;5.20;3.00;;;17.10;67.50;;;;;;8264248;28;20422;-69
2023/10/07 20:02:16;;;;;;;5.10;2.47;;;17.20;44.20;;;;;;8264625;28;20206;-70
2023/10/07 20:06:19;;;;;;;5.70;2.70;;;17.40;16.10;;;;;;8280358;28;20195;-69
2023/10/07 20:10:21;;;;;;;5.27;2.40;;;17.50;5.90;;;;;;8272786;28;20191;-67
2023/10/07 20:14:22;;;;;;;4.50;2.50;;;17.50;1.00;;;;;;8263229;28;20239;-70
2023/10/07 20:18:23;;;;;;;4.30;2.60;;;17.60;1.00;;;;;;8260811;28;20187;-70
2023/10/07 20:22:24;;;;;;;7.63;2.47;;;17.70;1.00;;;;;;8261501;28;20370;-66
2023/10/07 20:26:27;;;;;;;5.90;2.33;;;17.70;1.00;;;;;;8261846;28;20187;-68
2023/10/07 20:30:27;;;;;;;5.47;2.83;;;17.70;1.00;;;;;;8262735;28;20437;-70
2023/10/07 20:34:34;;;;;;;4.77;2.27;;;17.70;1.00;;;;;;8263515;28;20215;-69
2023/10/07 20:38:35;;;;;;;5.17;2.63;;;17.70;1.00;;;;;;8260153;28;20246;-70
2023/10/07 20:42:40;;;;;;;5.30;2.50;;;17.70;1.00;;;;;;8280481;28;20187;-69
2023/10/07 20:46:41;;;;;;;6.23;2.67;;;17.70;1.00;;;;;;8276862;28;20190;-71
2023/10/07 20:50:45;;;;;;;4.60;2.40;;;17.70;1.00;;;;;;8276966;28;20535;-69
2023/10/07 20:54:46;;;;;;;4.13;2.13;;;17.80;1.00;;;;;;8277015;28;20214;-67
2023/10/07 20:58:47;;;;;;;5.57;2.77;;;17.90;1.00;;;;;;8264431;28;20211;-67
2023/10/07 21:02:49;;;;;;;6.43;3.40;;;17.80;1.00;;;;;;8259647;28;20704;-66
2023/10/07 21:06:50;;;;;;;5.83;3.10;;;17.50;75.50;;;;;;8274941;28;20664;-63
2023/10/07 21:10:51;;;;;;;6.90;3.37;;;16.80;99.90;;;;;;8274177;28;20305;-67
2023/10/07 21:14:51;;;;;;;5.53;3.63;;;16.40;99.90;;;;;;8258033;28;20214;-64
2023/10/07 21:18:58;;;;;;;7.73;4.80;;;16.00;99.00;;;;;;8255900;28;20278;-61
2023/10/07 21:23:00;;;;;;;7.00;4.23;;;15.80;99.90;;;;;;8257693;28;20191;-64
2023/10/07 21:27:02;;;;;;;6.43;4.73;;;15.60;1.00;;;;;;8270883;28;20230;-64
2023/10/07 21:31:05;;;;;;;8.73;4.70;;;15.50;99.90;;;;;;8274042;28;20191;-63
2023/10/07 21:35:06;;;;;;;8.27;4.93;;;15.40;99.90;;;;;;8271997;28;20215;-64
2023/10/07 21:39:09;;;;;;;6.80;4.47;;;15.30;99.90;;;;;;8271430;28;20240;-63
2023/10/07 21:43:14;;;;;;;7.10;4.60;;;15.30;99.90;;;;;;8272388;28;20262;-62
2023/10/07 21:47:15;;;;;;;6.63;4.40;;;15.20;99.90;;;;;;8254360;28;20184;-64
2023/10/07 21:51:19;;;;;;;4.30;3.50;;;15.10;99.90;;;;;;8256679;28;20191;-62